Etusivu
METAR-TAF:

METAR-TAF

Lentoasemat :

Biskra, Algeria

Leveyspiiri: 34-48N, Pituuspiiri: 005-44E, korkeus merenpinnasta: 87 m

Tämänhetkinen sää

Tämä raportti tehtiin 24 minuuttia sitten, kello 02.00 UTC
Tuuli 4 kn pohjoisesta
Lämpötila 17°C
Kosteus 45%
Ilmanpaine 1021 hPa
Näkyvyys 10 km tai enemmän
ei pilviä alle 1500 m:ssä eikä cumulonimbus-pilviä

METAR: DAUB 210200Z 36004KT CAVOK 17/05 Q1021

Aika: 03:24 (02:24 UTC)

Sääennuste

Tämä raportti tehtiin 3 tuntia ja 24 minuuttia sitten, kello 23.00 UTC
Ennuste voimassa 21. päivästä klo 00 UTC - 21. päivään klo 24 UTC
Tuuli 8 kn pohjoisesta/koillisesta
Näkyvyys 10 km tai enemmän
ei pilviä alle 1500 m:ssä eikä cumulonimbus-pilviä
Tulossa
21. päivästä klo 10 UTC - 20. päivään klo 12 UTC
Tuuli 12 kn kaakosta

TAF: DAUB 202300Z 2100/2124 03008KT CAVOK BECMG 2110/2012 13012KT

Säähavainnot ja -ennusteet yli 4000 lentoasemalta (METAR- ja TAF-raportit).

Käytössä olevat sääasemat on merkitty karttaan keltaisilla ja punaisilla pisteillä.

Aseta hiiri pisteen päälle nähdäksesi sääaseman nimen.

Klikkaa sitten nähdäksesi säähavainnot ja -ennusteet.

Kartan vaihtaminen: klikkaa mustalla rastilla varustettuja vihreitä pisteitä, niin voit zoomata sisään; viivalla varustettua vihreää pistettä, niin voit zoomata ulos tai vihreitä nuolia, niin pääset viereisille kartoille.


METAR-TAF: